AirNav   Everest Fuels
 
 496 users online  

31WN Berlin Field LLC Airport
Berlin, Wisconsin, USA

GOING TO BERLIN?


FAA INFORMATION EFFECTIVE 26 JANUARY 2023

Location

FAA Identifier: 31WN
Lat/Long: 43-59-29.9300N 088-57-45.4140W
43-59.498833N 088-57.756900W
43.9916472,-88.9626150
(estimated)
Elevation: 773 ft. / 235.6 m (surveyed)
Variation: 01W (1985)
From city: 2 miles NW of BERLIN, WI
Time zone: UTC -6 (UTC -5 during Daylight Saving Time)
Zip code: 54923

Airport Operations

Airport use: Private use. Permission required prior to landing
Activation date: 08/1971
Control tower: no
ARTCC: CHICAGO CENTER
FSS: GREEN BAY FLIGHT SERVICE STATION
Attendance: UNATNDD
Pattern altitude: 1573 ft. MSL
Wind indicator: yes
Segmented circle: no

Airport Communications

WX AWOS-3PT at Y50 (15 nm W): 119.475 (920-787-0515)
WX ASOS at OSH (18 nm E): PHONE 920-426-1644

Nearby radio navigation aids

VOR radial/distance  VOR name  Freq  Var
OSHr268/17.6OSHKOSH VORTAC116.7502E

Airport Services

Parking: tiedowns
Airframe service: NONE
Powerplant service: NONE
Bottled oxygen: NONE
Bulk oxygen: NONE

Runway Information

Runway 9/27

Dimensions: 1850 x 60 ft. / 564 x 18 m
Surface: turf, in good condition
Runway edge markings: RWY 09/27 ENDS MKD WITH STRIPED BARRELS.
RUNWAY 9  RUNWAY 27
Traffic pattern: leftright
Markings: nonenone
Runway end identifier lights: nono
Obstructions: 29 ft. trees, 350 ft. from runway, 90 ft. right of centerline, 12:1 slope to clear15 ft. other, 10 ft. from runway, 30 ft. right of centerline

Airport Ownership and Management from official FAA records

Ownership: Privately-owned
Owner: MATT SHUBAT
N303 STATE RD 49
BERLIN, WI 54923
Phone 920-509-7013
Manager: MATT SHUBAT
N303 STATE RD 49
BERLIN, WI 54923
Phone 920-509-7013
EMAIL ADDRESS: BERLINFIELD@AOL.COM (ALL LOWER CASE) ALSO, MSHUBAT@AOL.COM (ALL LOWER CASE)

Airport Operational Statistics

Aircraft based on the field: 4
Single engine airplanes: 4
    
Aircraft operations: avg 50/month *
50% transient general aviation
50% local general aviation
* for 12-month period ending 18 September 1995

Additional Remarks

FOR CD CTC CHICAGO ARTCC AT 630-906-8921.

Instrument Procedures

There are no published instrument procedures at 31WN.

Some nearby airports with instrument procedures:

Y50 - Wautoma Municipal Airport (15 nm W)
KOSH - Wittman Regional Airport (18 nm E)
KPCZ - Waupaca Municipal Airport (21 nm N)
KFLD - Fond Du Lac County Airport (24 nm SE)
KATW - Appleton International Airport (25 nm NE)
 
Loc | Ops | Rwys | IFR | FBO | Links
Com | Nav | Svcs | Stats | Notes
Area around 31WN (Berlin Field LLC Airport)
 
Road maps at: MapQuest Bing Google
 
Aerial photo
No photo
 
Sectional chart

 
Airport distance calculator
Flying to Berlin Field LLC Airport? Find the distance to fly.

From to 31WN

Sunrise and sunset
Times for 27-Jan-2023
 Local
(UTC-6)
 Zulu
(UTC)
Morning civil twilight06:4812:48
Sunrise07:1913:19
Sunset16:5822:58
Evening civil twilight17:2923:29

Current date and time
Zulu (UTC)  27-Jan-2023 10:42:16
Local (UTC-6)  27-Jan-2023 04:42:16
 
METAR
KY50 
15nm W 
270956Z AUTO 16006KT 10SM FEW025 SCT095 M12/M13 A2973 RMK AO2 SLP081 T11221133 FZRANO $
KOSH 
18nm E 
271000Z AUTO 17010KT 10SM SCT021 M12/M16 A2976 RMK AO2 T11221156
KPCZ 
21nm N 
271015Z AUTO 14007KT 10SM SCT024 M10/M13 A2972 RMK AO2 T11021128
KATW 
25nm NE 
271015Z AUTO 17010KT 10SM SCT021 M11/M14 A2973 RMK AO2
KFLD 
25nm SE 
270953Z AUTO 19011KT 10SM CLR M10/M13 A2978 RMK AO2 SLP098 T11001133
TAF
NOTAMs
Click for the latest NOTAMs
NOTAMs are issued by the DoD/FAA and will open in a separate window not controlled by AirNav.

 

 
 

Would you like to see your business listed on this page?

 If your business provides an interesting product or service to pilots, flight crews, aircraft, or users of the Berlin Field LLC Airport, you should consider listing it here.  To start the listing process, click on the button below
 
Add a business
 

Other Pages about Berlin Field LLC Airport

Update a link
 
Copyright © AirNav, LLC. All rights reserved. Privacy Policy  Contact